Weather at Bucholz Army Air Field

Public forecast

Using degrees Celsius for public forecast. Weather courtesy of forecast.io.

Current aviation weather report (METAR) for Bucholz Army Air Field

Retrieved 2020/10/21 21:40 UTC (13 minutes ago):

PKWA 212140Z AUTO 12005KT 10SM SCT021 30/26 A2984 RMK AO2 T03020256

Aviation forecast (TAF) for Bucholz Army Air Field

Retrieved 2020/10/21 18:27 UTC (3 hours ago):

TAF PKWA 211724Z 2118/2218 VRB06KT P6SM VCSH SCT016 SCT050